createdAt,value
2022-11-13T00:01:28.096Z,11.94
2022-11-13T00:04:13.157Z,12.02
2022-11-13T00:06:59.491Z,12.02
2022-11-13T00:09:44.966Z,12.01
2022-11-13T00:12:30.621Z,11.99
2022-11-13T00:15:18.565Z,11.98
2022-11-13T00:18:03.906Z,11.97
2022-11-13T00:20:49.010Z,11.97
2022-11-13T00:23:35.681Z,11.95
2022-11-13T00:26:26.422Z,11.94
2022-11-13T00:29:11.303Z,11.90
2022-11-13T00:31:56.885Z,11.87
2022-11-13T00:34:48.296Z,11.82
2022-11-13T00:37:33.925Z,11.77
2022-11-13T00:40:19.125Z,11.71
2022-11-13T00:43:03.938Z,11.66
2022-11-13T00:45:48.927Z,11.62
2022-11-13T00:48:34.666Z,11.61
2022-11-13T00:51:19.689Z,11.60
2022-11-13T00:54:04.939Z,11.61
2022-11-13T00:57:05.081Z,11.60
2022-11-13T00:59:50.103Z,11.59
2022-11-13T01:02:34.873Z,11.58
2022-11-13T01:05:20.537Z,11.56
2022-11-13T01:08:06.169Z,11.55
2022-11-13T01:10:53.726Z,11.56
2022-11-13T01:13:41.303Z,11.56
2022-11-13T01:16:27.810Z,11.58
2022-11-13T01:19:12.516Z,11.59
2022-11-13T01:21:57.537Z,11.58
2022-11-13T01:24:46.605Z,11.57
2022-11-13T01:27:31.908Z,11.58
2022-11-13T01:30:17.281Z,11.55
2022-11-13T01:33:02.235Z,11.55
2022-11-13T01:35:48.602Z,11.54
2022-11-13T01:38:36.912Z,11.53
2022-11-13T01:41:32.083Z,11.52
2022-11-13T01:44:21.233Z,11.52
2022-11-13T01:47:06.126Z,11.51
2022-11-13T01:49:54.836Z,11.51
2022-11-13T01:52:41.206Z,11.51
2022-11-13T01:55:30.772Z,11.50
2022-11-13T01:58:16.386Z,11.50
2022-11-13T02:01:01.642Z,11.49
2022-11-13T02:03:46.436Z,11.48
2022-11-13T02:06:40.518Z,11.48
2022-11-13T02:09:42.704Z,11.48
2022-11-13T02:12:37.167Z,11.48
2022-11-13T02:15:25.860Z,11.49
2022-11-13T02:18:11.237Z,11.49
2022-11-13T02:21:14.908Z,11.49
2022-11-13T02:24:12.221Z,11.51
2022-11-13T02:27:02.130Z,11.49
2022-11-13T02:29:47.361Z,11.50
2022-11-13T02:32:32.873Z,11.50
2022-11-13T02:35:26.385Z,11.50
2022-11-13T02:38:11.598Z,11.53
2022-11-13T02:40:56.954Z,11.55
2022-11-13T02:43:41.983Z,11.58
2022-11-13T02:46:28.358Z,11.57
2022-11-13T02:49:13.280Z,11.56
2022-11-13T02:51:58.325Z,11.58
2022-11-13T02:54:44.384Z,11.62
2022-11-13T02:57:29.763Z,11.65
2022-11-13T03:00:15.312Z,11.67
2022-11-13T03:03:00.259Z,11.70
2022-11-13T03:05:49.696Z,11.73
2022-11-13T03:08:35.692Z,11.75
2022-11-13T03:11:21.355Z,11.75
2022-11-13T03:14:06.270Z,11.75
2022-11-13T03:17:05.623Z,11.77
2022-11-13T03:19:50.754Z,11.79
2022-11-13T03:22:35.727Z,11.78
2022-11-13T03:25:25.195Z,11.79
2022-11-13T03:28:09.965Z,11.80
2022-11-13T03:30:54.935Z,11.79
2022-11-13T03:33:40.018Z,11.78
2022-11-13T03:36:25.507Z,11.76
2022-11-13T03:39:10.901Z,11.74
2022-11-13T03:41:56.115Z,11.74
2022-11-13T03:44:41.105Z,11.74
2022-11-13T03:47:26.060Z,11.75
2022-11-13T03:50:10.954Z,11.76
2022-11-13T03:52:56.261Z,11.75
2022-11-13T03:55:45.165Z,11.75
2022-11-13T03:58:30.344Z,11.74
2022-11-13T04:01:15.985Z,11.75
2022-11-13T04:04:01.186Z,11.76
2022-11-13T04:06:47.396Z,11.78
2022-11-13T04:09:32.450Z,11.78
2022-11-13T04:12:17.528Z,11.79
2022-11-13T04:15:04.667Z,11.79
2022-11-13T04:17:50.088Z,11.78
2022-11-13T04:20:35.202Z,11.78
2022-11-13T04:23:20.564Z,11.77
2022-11-13T04:26:06.381Z,11.76
2022-11-13T04:28:51.847Z,11.74
2022-11-13T04:31:36.932Z,11.75
2022-11-13T04:34:25.037Z,11.71
2022-11-13T04:37:10.482Z,11.65
2022-11-13T04:39:55.601Z,11.59
2022-11-13T04:42:50.715Z,11.55
2022-11-13T04:45:36.992Z,11.51
2022-11-13T04:48:22.123Z,11.48
2022-11-13T04:51:07.079Z,11.45
2022-11-13T04:53:52.357Z,11.41
2022-11-13T04:56:37.552Z,11.39
2022-11-13T04:59:22.590Z,11.36
2022-11-13T05:02:07.976Z,11.34
2022-11-13T05:04:55.678Z,11.31
2022-11-13T05:07:42.788Z,11.27
2022-11-13T05:10:27.879Z,11.25
2022-11-13T05:13:13.005Z,11.20
2022-11-13T05:16:08.268Z,11.14
2022-11-13T05:18:53.301Z,11.10
2022-11-13T05:21:39.356Z,11.09
2022-11-13T05:24:28.830Z,11.06
2022-11-13T05:27:17.250Z,11.04
2022-11-13T05:30:03.587Z,11.03
2022-11-13T05:32:48.443Z,11.02
2022-11-13T05:35:33.321Z,11.00
2022-11-13T05:38:18.413Z,10.97
2022-11-13T05:41:09.096Z,10.95
2022-11-13T05:43:59.248Z,10.95
2022-11-13T05:46:46.240Z,10.94
2022-11-13T05:49:31.369Z,10.92
2022-11-13T05:52:16.217Z,10.91
2022-11-13T05:55:02.345Z,10.91
2022-11-13T05:57:47.480Z,10.89
2022-11-13T06:00:32.453Z,10.88
2022-11-13T06:03:17.572Z,10.84
2022-11-13T06:06:04.286Z,10.80
2022-11-13T06:08:50.892Z,10.79
2022-11-13T06:11:36.181Z,10.77
2022-11-13T06:14:24.594Z,10.75
2022-11-13T06:17:09.567Z,10.73
2022-11-13T06:19:54.589Z,10.70
2022-11-13T06:22:39.639Z,10.67
2022-11-13T06:25:24.669Z,10.64
2022-11-13T06:28:09.953Z,10.61
2022-11-13T06:30:54.693Z,10.57
2022-11-13T06:33:41.278Z,10.55
2022-11-13T06:36:28.965Z,10.54
2022-11-13T06:39:14.238Z,10.54
2022-11-13T06:41:59.486Z,10.53
2022-11-13T06:44:46.156Z,10.54
2022-11-13T06:47:31.008Z,10.55
2022-11-13T06:50:15.936Z,10.57
2022-11-13T06:53:00.862Z,10.60
2022-11-13T06:55:49.923Z,10.61
2022-11-13T06:58:35.598Z,10.62
2022-11-13T07:01:23.033Z,10.63
2022-11-13T07:04:11.725Z,10.64
2022-11-13T07:07:05.263Z,10.66
2022-11-13T07:09:50.139Z,10.68
2022-11-13T07:12:35.248Z,10.69
2022-11-13T07:15:20.642Z,10.70
2022-11-13T07:18:06.921Z,10.74
2022-11-13T07:20:52.012Z,10.76
2022-11-13T07:23:42.860Z,10.77
2022-11-13T07:26:28.230Z,10.77
2022-11-13T07:29:13.045Z,10.75
2022-11-13T07:31:57.989Z,10.74
2022-11-13T07:34:44.409Z,10.77
2022-11-13T07:37:29.597Z,10.81
2022-11-13T07:40:14.626Z,10.91
2022-11-13T07:43:01.093Z,11.04
2022-11-13T07:46:13.070Z,11.21
2022-11-13T07:48:57.909Z,11.45
2022-11-13T07:51:43.416Z,11.68
2022-11-13T07:54:31.581Z,11.88
2022-11-13T07:57:17.034Z,12.03
2022-11-13T08:00:02.046Z,12.16
2022-11-13T08:02:47.829Z,12.25
2022-11-13T08:05:37.361Z,12.30
2022-11-13T08:08:22.589Z,12.38
2022-11-13T08:11:09.355Z,12.39
2022-11-13T08:13:54.538Z,12.40
2022-11-13T08:16:40.778Z,12.40
2022-11-13T08:19:25.584Z,12.40
2022-11-13T08:22:10.632Z,12.45
2022-11-13T08:24:58.005Z,12.45
2022-11-13T08:27:43.037Z,12.48
2022-11-13T08:30:28.911Z,12.51
2022-11-13T08:33:13.863Z,12.55
2022-11-13T08:36:23.930Z,12.66
2022-11-13T08:39:09.593Z,12.77
2022-11-13T08:42:04.746Z,12.89
2022-11-13T08:44:49.955Z,13.02
2022-11-13T08:47:35.407Z,13.13
2022-11-13T08:50:20.842Z,13.22
2022-11-13T08:53:06.514Z,13.34
2022-11-13T08:55:52.785Z,13.46
2022-11-13T08:58:37.924Z,13.58
2022-11-13T09:01:22.889Z,13.74
2022-11-13T09:04:08.050Z,13.86
2022-11-13T09:07:04.033Z,14.01
2022-11-13T09:09:49.029Z,14.14
2022-11-13T09:12:34.000Z,14.24
2022-11-13T09:15:24.595Z,14.36
2022-11-13T09:18:10.148Z,14.46
2022-11-13T09:20:56.017Z,14.55
2022-11-13T09:23:40.819Z,14.67
2022-11-13T09:26:25.605Z,14.82
2022-11-13T09:29:10.684Z,14.90
2022-11-13T09:31:56.162Z,15.01
2022-11-13T09:34:41.282Z,15.12
2022-11-13T09:37:26.342Z,15.26
2022-11-13T09:40:24.930Z,15.48
2022-11-13T09:43:21.553Z,15.69
2022-11-13T09:46:27.711Z,15.89
2022-11-13T09:49:32.653Z,16.21
2022-11-13T09:52:25.956Z,16.41
2022-11-13T09:55:16.389Z,16.60
2022-11-13T09:58:12.585Z,16.76
2022-11-13T10:01:00.417Z,16.97
2022-11-13T10:04:03.419Z,17.17
2022-11-13T10:07:05.509Z,17.40
2022-11-13T10:10:18.799Z,17.59
2022-11-13T10:13:05.832Z,17.77
2022-11-13T10:16:04.219Z,17.93
2022-11-13T10:18:50.700Z,18.08
2022-11-13T10:21:45.133Z,18.24
2022-11-13T10:24:40.933Z,18.39
2022-11-13T10:27:25.967Z,18.50
2022-11-13T10:30:16.827Z,18.65
2022-11-13T10:33:06.370Z,18.78
2022-11-13T10:36:20.510Z,18.90
2022-11-13T10:39:08.072Z,19.03
2022-11-13T10:41:55.023Z,19.16
2022-11-13T10:44:53.864Z,19.31
2022-11-13T10:48:03.087Z,19.43
2022-11-13T10:50:59.891Z,19.59
2022-11-13T10:53:44.814Z,19.71
2022-11-13T10:56:36.373Z,19.87
2022-11-13T10:59:21.596Z,19.96
2022-11-13T11:02:17.670Z,20.05
2022-11-13T11:05:24.363Z,20.12
2022-11-13T11:08:10.988Z,20.22
2022-11-13T11:11:18.605Z,20.29
2022-11-13T11:14:22.697Z,20.36
2022-11-13T11:17:11.016Z,20.45
2022-11-13T11:20:44.526Z,20.54
2022-11-13T11:23:55.813Z,20.66
2022-11-13T11:26:47.446Z,20.73
2022-11-13T11:29:44.996Z,20.77
2022-11-13T11:32:42.402Z,20.85
2022-11-13T11:35:49.492Z,20.88
2022-11-13T11:38:42.389Z,20.92
2022-11-13T11:41:34.515Z,20.98
2022-11-13T11:44:36.212Z,21.02
2022-11-13T11:47:21.342Z,21.10
2022-11-13T11:50:13.693Z,21.10
2022-11-13T11:53:31.698Z,21.01
2022-11-13T11:56:33.701Z,20.99
2022-11-13T11:59:53.502Z,20.96
2022-11-13T12:02:47.633Z,20.92
2022-11-13T12:05:55.899Z,20.87
2022-11-13T12:08:52.691Z,20.85
2022-11-13T12:11:48.602Z,20.87
2022-11-13T12:14:52.487Z,20.88
2022-11-13T12:17:56.078Z,20.96
2022-11-13T12:20:50.162Z,20.99
2022-11-13T12:24:01.653Z,21.02
2022-11-13T12:27:38.686Z,21.09
2022-11-13T12:31:05.288Z,21.11
2022-11-13T12:34:04.405Z,21.21
2022-11-13T12:36:50.984Z,21.24
2022-11-13T12:39:36.029Z,21.24
2022-11-13T12:42:36.424Z,21.28
2022-11-13T12:45:39.624Z,21.32
2022-11-13T12:48:37.277Z,21.33
2022-11-13T12:51:22.116Z,21.36
2022-11-13T12:54:10.648Z,21.40
2022-11-13T12:57:16.185Z,21.51
2022-11-13T13:00:26.687Z,21.58
2022-11-13T13:03:11.978Z,21.57
2022-11-13T13:06:25.129Z,21.47
2022-11-13T13:09:38.520Z,21.37
2022-11-13T13:12:48.028Z,21.19
2022-11-13T13:15:49.021Z,21.14
2022-11-13T13:18:38.985Z,21.07
2022-11-13T13:21:24.106Z,21.00
2022-11-13T13:24:36.532Z,20.96
2022-11-13T13:27:27.052Z,20.94
2022-11-13T13:30:25.168Z,20.90
2022-11-13T13:33:25.500Z,20.85
2022-11-13T13:36:36.921Z,20.74
2022-11-13T13:39:47.767Z,20.68
2022-11-13T13:42:50.594Z,20.60
2022-11-13T13:46:13.678Z,20.51
2022-11-13T13:49:05.669Z,20.44
2022-11-13T13:51:54.784Z,20.36
2022-11-13T13:54:45.593Z,20.26
2022-11-13T13:57:30.880Z,20.15
2022-11-13T14:00:18.995Z,20.06
2022-11-13T14:03:04.764Z,20.00
2022-11-13T14:05:51.154Z,19.92
2022-11-13T14:08:36.255Z,19.83
2022-11-13T14:11:29.354Z,19.74
2022-11-13T14:14:22.939Z,19.65
2022-11-13T14:17:10.739Z,19.56
2022-11-13T14:20:00.913Z,19.46
2022-11-13T14:22:55.075Z,19.38
2022-11-13T14:25:45.039Z,19.29
2022-11-13T14:28:42.989Z,19.23
2022-11-13T14:31:37.300Z,19.13
2022-11-13T14:34:26.677Z,19.07
2022-11-13T14:37:35.821Z,19.01
2022-11-13T14:40:20.881Z,18.93
2022-11-13T14:43:08.823Z,18.85
2022-11-13T14:46:05.777Z,18.73
2022-11-13T14:48:55.738Z,18.66
2022-11-13T14:51:41.584Z,18.58
2022-11-13T14:55:13.207Z,18.50
2022-11-13T14:57:50.181Z,18.41
2022-11-13T15:00:37.141Z,18.34
2022-11-13T15:03:22.525Z,18.27
2022-11-13T15:06:16.656Z,18.19
2022-11-13T15:09:02.664Z,18.12
2022-11-13T15:11:47.924Z,18.06
2022-11-13T15:14:39.722Z,18.00
2022-11-13T15:17:24.791Z,17.94
2022-11-13T15:20:16.018Z,17.91
2022-11-13T15:23:01.055Z,17.89
2022-11-13T15:25:46.197Z,17.86
2022-11-13T15:28:31.456Z,17.83
2022-11-13T15:31:26.459Z,17.77
2022-11-13T15:34:13.169Z,17.74
2022-11-13T15:37:13.380Z,17.68
2022-11-13T15:39:58.885Z,17.64
2022-11-13T15:42:44.848Z,17.56
2022-11-13T15:45:32.984Z,17.46
2022-11-13T15:48:18.653Z,17.36
2022-11-13T15:51:04.148Z,17.27
2022-11-13T15:53:53.983Z,17.13
2022-11-13T15:56:39.622Z,17.01
2022-11-13T15:59:24.535Z,16.91
2022-11-13T16:02:09.933Z,16.80
2022-11-13T16:04:57.474Z,16.67
2022-11-13T16:07:42.808Z,16.51
2022-11-13T16:10:28.138Z,16.39
2022-11-13T16:13:13.418Z,16.28
2022-11-13T16:16:00.790Z,16.19
2022-11-13T16:18:46.079Z,16.14
2022-11-13T16:21:31.215Z,16.08
2022-11-13T16:24:24.502Z,16.01
2022-11-13T16:27:36.103Z,15.92
2022-11-13T16:30:23.335Z,15.82
2022-11-13T16:33:12.454Z,15.69
2022-11-13T16:35:57.861Z,15.58
2022-11-13T16:38:43.139Z,15.48
2022-11-13T16:41:30.596Z,15.38
2022-11-13T16:44:32.052Z,15.32
2022-11-13T16:47:25.509Z,15.25
2022-11-13T16:50:14.956Z,15.23
2022-11-13T16:53:01.149Z,15.23
2022-11-13T16:55:47.820Z,15.24
2022-11-13T16:58:33.018Z,15.23
2022-11-13T17:01:22.424Z,15.21
2022-11-13T17:04:07.428Z,15.21
2022-11-13T17:06:56.887Z,15.20
2022-11-13T17:09:45.305Z,15.17
2022-11-13T17:12:30.777Z,15.14
2022-11-13T17:15:15.835Z,15.13
2022-11-13T17:18:01.094Z,15.13
2022-11-13T17:20:50.825Z,15.15
2022-11-13T17:23:35.812Z,15.13
2022-11-13T17:26:20.876Z,15.09
2022-11-13T17:29:06.861Z,15.06
2022-11-13T17:31:52.103Z,15.02
2022-11-13T17:34:40.162Z,14.97
2022-11-13T17:37:25.536Z,14.90
2022-11-13T17:40:11.639Z,14.86
2022-11-13T17:42:56.754Z,14.82
2022-11-13T17:45:52.298Z,14.79
2022-11-13T17:48:37.785Z,14.76
2022-11-13T17:51:22.971Z,14.72
2022-11-13T17:54:08.211Z,14.71
2022-11-13T17:57:08.526Z,14.66
2022-11-13T17:59:53.512Z,14.60
2022-11-13T18:02:39.707Z,14.56
2022-11-13T18:05:25.704Z,14.54
2022-11-13T18:08:14.128Z,14.53
2022-11-13T18:10:59.360Z,14.50
2022-11-13T18:13:46.465Z,14.47
2022-11-13T18:16:34.569Z,14.45
2022-11-13T18:19:19.646Z,14.43
2022-11-13T18:22:04.444Z,14.40
2022-11-13T18:24:54.211Z,14.35
2022-11-13T18:27:40.012Z,14.30
2022-11-13T18:30:25.103Z,14.26
2022-11-13T18:33:10.467Z,14.24
2022-11-13T18:36:00.464Z,14.24
2022-11-13T18:38:45.663Z,14.22
2022-11-13T18:41:32.463Z,14.18
2022-11-13T18:44:20.799Z,14.11
2022-11-13T18:47:06.037Z,14.05
2022-11-13T18:49:51.075Z,14.00
2022-11-13T18:52:36.370Z,13.96
2022-11-13T18:55:21.706Z,13.91
2022-11-13T18:58:06.739Z,13.88
2022-11-13T19:00:51.570Z,13.84
2022-11-13T19:03:36.517Z,13.80
2022-11-13T19:06:23.253Z,13.74
2022-11-13T19:09:11.772Z,13.66
2022-11-13T19:11:56.999Z,13.61
2022-11-13T19:14:46.198Z,13.56
2022-11-13T19:17:31.675Z,13.50
2022-11-13T19:20:18.557Z,13.45
2022-11-13T19:23:08.855Z,13.39
2022-11-13T19:25:58.481Z,13.35
2022-11-13T19:28:47.322Z,13.33
2022-11-13T19:31:32.453Z,13.33
2022-11-13T19:34:20.024Z,13.31
2022-11-13T19:37:04.924Z,13.29
2022-11-13T19:39:50.194Z,13.25
2022-11-13T19:42:40.792Z,13.23
2022-11-13T19:45:29.464Z,13.17
2022-11-13T19:48:17.818Z,13.14
2022-11-13T19:51:10.927Z,13.09
2022-11-13T19:53:58.412Z,13.04
2022-11-13T19:56:44.704Z,13.01
2022-11-13T19:59:29.987Z,13.00
2022-11-13T20:02:15.024Z,12.99
2022-11-13T20:05:04.433Z,12.97
2022-11-13T20:07:49.657Z,12.95
2022-11-13T20:10:34.588Z,12.92
2022-11-13T20:13:19.880Z,12.92
2022-11-13T20:16:12.234Z,12.92
2022-11-13T20:18:58.094Z,12.89
2022-11-13T20:21:43.571Z,12.87
2022-11-13T20:24:31.649Z,12.86
2022-11-13T20:27:17.107Z,12.86
2022-11-13T20:30:02.784Z,12.82
2022-11-13T20:32:47.845Z,12.77
2022-11-13T20:35:33.618Z,12.71
2022-11-13T20:38:18.492Z,12.65
2022-11-13T20:41:07.847Z,12.59
2022-11-13T20:43:56.184Z,12.55
2022-11-13T20:46:41.645Z,12.52
2022-11-13T20:49:26.494Z,12.49
2022-11-13T20:52:12.151Z,12.46
2022-11-13T20:55:01.444Z,12.43
2022-11-13T20:57:46.600Z,12.41
2022-11-13T21:00:31.872Z,12.40
2022-11-13T21:03:17.200Z,12.37
2022-11-13T21:06:07.230Z,12.36
2022-11-13T21:08:56.665Z,12.35
2022-11-13T21:11:41.946Z,12.35
2022-11-13T21:14:28.618Z,12.34
2022-11-13T21:17:13.665Z,12.33
2022-11-13T21:19:59.041Z,12.34
2022-11-13T21:22:44.261Z,12.34
2022-11-13T21:25:30.010Z,12.31
2022-11-13T21:28:17.327Z,12.30
2022-11-13T21:31:18.059Z,12.26
2022-11-13T21:34:04.102Z,12.22
2022-11-13T21:36:49.579Z,12.17
2022-11-13T21:39:34.649Z,12.13
2022-11-13T21:42:19.838Z,12.11
2022-11-13T21:45:09.903Z,12.05
2022-11-13T21:47:55.157Z,12.01
2022-11-13T21:50:40.388Z,11.98
2022-11-13T21:53:25.830Z,11.94
2022-11-13T21:56:16.158Z,11.90
2022-11-13T21:59:01.650Z,11.88
2022-11-13T22:01:47.077Z,11.83
2022-11-13T22:04:33.564Z,11.81
2022-11-13T22:07:18.528Z,11.78
2022-11-13T22:10:08.098Z,11.74
2022-11-13T22:12:53.293Z,11.69
2022-11-13T22:15:38.529Z,11.65
2022-11-13T22:18:24.304Z,11.62
2022-11-13T22:21:10.243Z,11.57
2022-11-13T22:23:55.924Z,11.57
2022-11-13T22:26:50.461Z,11.50
2022-11-13T22:29:35.375Z,11.45
2022-11-13T22:32:20.279Z,11.44
2022-11-13T22:35:09.816Z,11.42
2022-11-13T22:37:54.768Z,11.41
2022-11-13T22:40:39.685Z,11.38
2022-11-13T22:43:24.879Z,11.36
2022-11-13T22:46:17.886Z,11.36
2022-11-13T22:49:05.006Z,11.35
2022-11-13T22:51:50.009Z,11.34
2022-11-13T22:54:36.529Z,11.31
2022-11-13T22:57:21.998Z,11.29
2022-11-13T23:00:09.258Z,11.28
2022-11-13T23:02:54.656Z,11.27
2022-11-13T23:05:39.814Z,11.25
2022-11-13T23:08:25.128Z,11.22
2022-11-13T23:11:23.193Z,11.18
2022-11-13T23:14:11.563Z,11.16
2022-11-13T23:17:05.496Z,11.13
2022-11-13T23:19:50.384Z,11.10
2022-11-13T23:22:35.477Z,11.08
2022-11-13T23:25:24.118Z,11.05
2022-11-13T23:28:09.963Z,10.99
2022-11-13T23:30:55.298Z,10.95
2022-11-13T23:33:40.647Z,10.91
2022-11-13T23:36:27.541Z,10.89
2022-11-13T23:39:14.750Z,10.88
2022-11-13T23:41:59.783Z,10.87
2022-11-13T23:44:44.776Z,10.85
2022-11-13T23:47:29.843Z,10.82
2022-11-13T23:50:15.014Z,10.80
2022-11-13T23:52:59.929Z,10.80
2022-11-13T23:55:45.672Z,10.79
2022-11-13T23:58:32.463Z,10.75
